createdAt,value
2023-01-11T00:00:11.454Z,6.93
2023-01-11T00:02:39.420Z,6.57
2023-01-11T00:05:11.007Z,6.85
2023-01-11T00:07:40.927Z,6.94
2023-01-11T00:10:12.572Z,6.74
2023-01-11T00:12:40.493Z,6.87
2023-01-11T00:15:08.806Z,6.80
2023-01-11T00:17:37.394Z,6.90
2023-01-11T00:20:05.452Z,6.52
2023-01-11T00:22:32.779Z,6.52
2023-01-11T00:25:01.139Z,6.89
2023-01-11T00:27:30.329Z,6.87
2023-01-11T00:29:58.190Z,6.89
2023-01-11T00:32:27.299Z,6.93
2023-01-11T00:34:55.383Z,7.00
2023-01-11T00:37:23.616Z,6.95
2023-01-11T00:39:53.681Z,6.87
2023-01-11T00:42:39.840Z,6.45
2023-01-11T00:45:27.116Z,6.63
2023-01-11T00:47:57.925Z,6.50
2023-01-11T00:50:32.550Z,6.50
2023-01-11T00:53:00.993Z,6.52
2023-01-11T00:55:29.256Z,6.57
2023-01-11T00:58:01.512Z,6.82
2023-01-11T01:00:30.413Z,6.65
2023-01-11T01:02:58.409Z,6.55
2023-01-11T01:05:27.026Z,6.61
2023-01-11T01:07:55.327Z,6.41
2023-01-11T01:10:23.126Z,6.31
2023-01-11T01:13:09.922Z,6.41
2023-01-11T01:15:39.976Z,6.11
2023-01-11T01:18:07.932Z,6.67
2023-01-11T01:20:35.947Z,6.34
2023-01-11T01:23:03.809Z,6.24
2023-01-11T01:25:31.588Z,6.20
2023-01-11T01:27:59.606Z,6.33
2023-01-11T01:30:27.936Z,6.18
2023-01-11T01:32:56.797Z,6.08
2023-01-11T01:35:24.644Z,6.46
2023-01-11T01:37:52.310Z,6.10
2023-01-11T01:40:19.953Z,6.10
2023-01-11T01:42:47.465Z,5.86
2023-01-11T01:45:25.988Z,6.04
2023-01-11T01:48:01.325Z,6.77
2023-01-11T01:50:37.095Z,6.21
2023-01-11T01:53:11.332Z,6.62
2023-01-11T01:55:41.694Z,6.41
2023-01-11T01:58:13.371Z,6.51
2023-01-11T02:00:41.935Z,6.44
2023-01-11T02:03:12.196Z,6.35
2023-01-11T02:05:40.997Z,6.63
2023-01-11T02:08:12.177Z,6.31
2023-01-11T02:10:40.288Z,6.62
2023-01-11T02:13:11.115Z,6.81
2023-01-11T02:15:39.232Z,6.62
2023-01-11T02:18:10.525Z,6.19
2023-01-11T02:20:54.269Z,6.41
2023-01-11T02:23:30.626Z,6.30
2023-01-11T02:26:10.596Z,6.46
2023-01-11T02:28:47.090Z,6.46
2023-01-11T02:31:30.783Z,6.44
2023-01-11T02:34:11.136Z,6.44
2023-01-11T02:37:09.999Z,6.46
2023-01-11T02:40:04.484Z,6.43
2023-01-11T02:43:05.798Z,6.42
2023-01-11T02:45:55.979Z,6.51
2023-01-11T02:48:35.963Z,6.32
2023-01-11T02:51:08.087Z,6.02
2023-01-11T02:53:56.989Z,6.33
2023-01-11T02:56:31.305Z,5.94
2023-01-11T02:59:02.505Z,5.73
2023-01-11T03:01:30.795Z,5.87
2023-01-11T03:03:58.764Z,5.66
2023-01-11T03:06:31.090Z,5.84
2023-01-11T03:08:58.953Z,5.90
2023-01-11T03:12:06.827Z,6.21
2023-01-11T03:14:56.473Z,6.37
2023-01-11T03:17:42.928Z,6.29
2023-01-11T03:20:20.478Z,6.15
2023-01-11T03:23:10.596Z,6.24
2023-01-11T03:25:51.585Z,6.24
2023-01-11T03:28:26.114Z,6.20
2023-01-11T03:31:08.480Z,5.93
2023-01-11T03:33:39.666Z,5.74
2023-01-11T03:36:23.798Z,6.11
2023-01-11T03:38:57.974Z,6.10
2023-01-11T03:41:29.996Z,5.81
2023-01-11T03:43:58.190Z,6.03
2023-01-11T03:46:39.084Z,5.67
2023-01-11T03:49:21.195Z,5.83
2023-01-11T03:51:51.854Z,5.55
2023-01-11T03:54:27.022Z,5.77
2023-01-11T03:57:07.050Z,6.02
2023-01-11T03:59:35.490Z,6.21
2023-01-11T04:02:03.268Z,5.99
2023-01-11T04:04:32.004Z,5.86
2023-01-11T04:06:59.933Z,6.10
2023-01-11T04:09:27.944Z,6.11
2023-01-11T04:11:56.223Z,5.78
2023-01-11T04:14:23.681Z,5.90
2023-01-11T04:16:51.352Z,5.89
2023-01-11T04:19:19.170Z,6.08
2023-01-11T04:21:47.006Z,6.05
2023-01-11T04:24:14.777Z,5.93
2023-01-11T04:26:42.823Z,6.10
2023-01-11T04:29:11.344Z,6.32
2023-01-11T04:31:39.415Z,6.09
2023-01-11T04:34:07.980Z,6.07
2023-01-11T04:36:36.092Z,5.86
2023-01-11T04:39:04.985Z,6.22
2023-01-11T04:41:51.864Z,6.21
2023-01-11T04:44:19.695Z,6.21
2023-01-11T04:46:49.980Z,6.00
2023-01-11T04:49:19.309Z,5.96
2023-01-11T04:51:46.927Z,6.30
2023-01-11T04:54:16.662Z,6.04
2023-01-11T04:56:44.821Z,6.33
2023-01-11T04:59:18.106Z,6.38
2023-01-11T05:01:50.975Z,6.23
2023-01-11T05:04:19.011Z,6.11
2023-01-11T05:06:48.157Z,6.18
2023-01-11T05:09:18.012Z,5.92
2023-01-11T05:11:46.072Z,5.94
2023-01-11T05:14:15.678Z,5.99
2023-01-11T05:16:44.571Z,6.50
2023-01-11T05:19:15.996Z,6.48
2023-01-11T05:21:45.875Z,6.48
2023-01-11T05:24:16.383Z,6.08
2023-01-11T05:26:45.883Z,6.05
2023-01-11T05:29:21.137Z,5.73
2023-01-11T05:31:50.790Z,6.20
2023-01-11T05:34:22.086Z,6.00
2023-01-11T05:36:51.505Z,5.98
2023-01-11T05:39:19.940Z,5.83
2023-01-11T05:41:48.180Z,5.93
2023-01-11T05:44:35.695Z,6.18
2023-01-11T05:47:04.328Z,6.22
2023-01-11T05:49:33.310Z,6.01
2023-01-11T05:52:02.999Z,5.94
2023-01-11T05:54:31.971Z,5.90
2023-01-11T05:57:03.952Z,6.14
2023-01-11T05:59:32.293Z,6.25
2023-01-11T06:02:00.583Z,6.18
2023-01-11T06:04:30.867Z,6.23
2023-01-11T06:07:00.585Z,6.05
2023-01-11T06:09:29.006Z,6.19
2023-01-11T06:11:57.251Z,6.29
2023-01-11T06:14:30.055Z,6.16
2023-01-11T06:17:03.190Z,6.10
2023-01-11T06:19:31.164Z,6.14
2023-01-11T06:21:59.131Z,6.08
2023-01-11T06:24:28.236Z,5.97
2023-01-11T06:26:56.251Z,6.15
2023-01-11T06:29:24.432Z,6.15
2023-01-11T06:31:53.375Z,6.05
2023-01-11T06:34:21.319Z,6.11
2023-01-11T06:36:49.236Z,5.78
2023-01-11T06:39:17.295Z,5.99
2023-01-11T06:41:45.350Z,5.90
2023-01-11T06:44:13.557Z,5.99
2023-01-11T06:46:42.346Z,5.80
2023-01-11T06:49:11.754Z,5.73
2023-01-11T06:51:41.337Z,6.18
2023-01-11T06:54:09.545Z,6.08
2023-01-11T06:56:37.638Z,6.08
2023-01-11T06:59:06.130Z,5.92
2023-01-11T07:01:34.430Z,5.79
2023-01-11T07:04:02.192Z,6.26
2023-01-11T07:06:32.140Z,6.23
2023-01-11T07:08:59.813Z,6.36
2023-01-11T07:11:32.447Z,6.17
2023-01-11T07:14:03.903Z,6.33
2023-01-11T07:16:32.277Z,6.09
2023-01-11T07:19:01.662Z,6.08
2023-01-11T07:21:30.337Z,6.04
2023-01-11T07:23:58.484Z,6.27
2023-01-11T07:26:28.328Z,6.29
2023-01-11T07:28:56.289Z,6.32
2023-01-11T07:31:26.142Z,6.24
2023-01-11T07:33:54.498Z,6.38
2023-01-11T07:36:25.001Z,6.45
2023-01-11T07:38:53.076Z,6.50
2023-01-11T07:41:39.808Z,6.53
2023-01-11T07:44:12.190Z,6.59
2023-01-11T07:46:41.069Z,6.62
2023-01-11T07:49:09.060Z,6.73
2023-01-11T07:54:12.009Z,6.84
2023-01-11T07:56:41.408Z,6.85
2023-01-11T07:59:09.955Z,6.76
2023-01-11T08:01:39.480Z,6.90
2023-01-11T08:04:12.094Z,6.87
2023-01-11T08:06:40.445Z,6.94
2023-01-11T08:09:09.658Z,6.91
2023-01-11T08:11:57.091Z,7.05
2023-01-11T08:14:41.628Z,7.15
2023-01-11T08:17:14.907Z,7.12
2023-01-11T08:19:45.060Z,7.00
2023-01-11T08:22:21.096Z,6.77
2023-01-11T08:24:51.309Z,7.00
2023-01-11T08:27:19.353Z,7.12
2023-01-11T08:29:50.586Z,7.49
2023-01-11T08:32:18.103Z,7.46
2023-01-11T08:34:50.837Z,7.59
2023-01-11T08:37:20.001Z,7.54
2023-01-11T08:39:49.813Z,7.77
2023-01-11T08:42:19.201Z,7.88
2023-01-11T08:44:52.060Z,7.85
2023-01-11T08:47:20.358Z,7.92
2023-01-11T08:49:48.271Z,7.84
2023-01-11T08:52:17.752Z,7.93
2023-01-11T08:54:46.096Z,7.99
2023-01-11T08:57:14.434Z,8.20
2023-01-11T08:59:43.278Z,8.40
2023-01-11T09:02:12.845Z,8.13
2023-01-11T09:04:43.164Z,8.52
2023-01-11T09:07:12.011Z,8.85
2023-01-11T09:09:41.852Z,8.74
2023-01-11T09:12:10.281Z,8.63
2023-01-11T09:14:39.882Z,8.65
2023-01-11T09:17:09.072Z,8.63
2023-01-11T09:19:38.411Z,9.07
2023-01-11T09:22:10.116Z,8.67
2023-01-11T09:24:38.788Z,8.80
2023-01-11T09:27:11.715Z,8.84
2023-01-11T09:29:42.432Z,9.06
2023-01-11T09:32:11.950Z,8.82
2023-01-11T09:34:41.900Z,9.14
2023-01-11T09:37:10.377Z,9.28
2023-01-11T09:39:39.195Z,9.51
2023-01-11T09:42:31.696Z,9.24
2023-01-11T09:45:14.036Z,9.79
2023-01-11T09:48:01.128Z,10.04
2023-01-11T09:50:34.057Z,9.86
2023-01-11T09:53:09.760Z,9.95
2023-01-11T09:55:44.819Z,9.98
2023-01-11T09:58:29.302Z,10.03
2023-01-11T10:01:10.091Z,9.96
2023-01-11T10:03:49.980Z,10.34
2023-01-11T10:06:29.402Z,10.39
2023-01-11T10:21:29.249Z,10.50
2023-01-11T10:24:20.935Z,10.23
2023-01-11T10:26:58.965Z,10.19
2023-01-11T10:29:50.926Z,10.52
2023-01-11T10:32:50.527Z,10.72
2023-01-11T10:38:56.787Z,10.56
2023-01-11T10:41:37.709Z,10.55
2023-01-11T10:44:09.940Z,10.94
2023-01-11T10:46:45.830Z,11.12
2023-01-11T10:49:37.553Z,11.18
2023-01-11T10:52:35.254Z,11.16
2023-01-11T10:55:24.138Z,10.87
2023-01-11T10:58:01.589Z,10.85
2023-01-11T11:00:51.355Z,11.15
2023-01-11T11:03:32.962Z,11.26
2023-01-11T11:06:34.803Z,11.03
2023-01-11T11:09:19.102Z,11.08
2023-01-11T11:12:10.896Z,11.58
2023-01-11T11:15:00.875Z,12.14
2023-01-11T11:17:38.258Z,12.04
2023-01-11T11:20:24.057Z,12.29
2023-01-11T11:22:56.881Z,12.01
2023-01-11T11:25:27.641Z,12.27
2023-01-11T11:27:58.826Z,12.18
2023-01-11T11:30:31.934Z,12.21
2023-01-11T11:33:12.931Z,12.36
2023-01-11T11:35:46.881Z,12.44
2023-01-11T11:38:23.052Z,11.98
2023-01-11T11:40:59.323Z,12.13
2023-01-11T11:43:28.552Z,12.56
2023-01-11T11:46:01.323Z,12.32
2023-01-11T11:48:33.798Z,11.96
2023-01-11T11:51:05.365Z,11.84
2023-01-11T11:53:36.638Z,12.28
2023-01-11T11:56:19.793Z,12.34
2023-01-11T11:58:50.466Z,12.17
2023-01-11T12:01:37.769Z,12.18
2023-01-11T12:04:15.507Z,12.34
2023-01-11T12:06:46.461Z,12.74
2023-01-11T12:09:27.607Z,12.10
2023-01-11T12:11:58.324Z,12.10
2023-01-11T12:14:30.307Z,12.14
2023-01-11T12:16:59.085Z,12.09
2023-01-11T12:19:47.911Z,12.32
2023-01-11T12:22:19.795Z,12.47
2023-01-11T12:25:03.733Z,12.18
2023-01-11T12:27:53.991Z,12.39
2023-01-11T12:30:27.143Z,12.49
2023-01-11T12:33:23.835Z,12.44
2023-01-11T12:36:30.012Z,12.24
2023-01-11T12:39:07.049Z,11.82
2023-01-11T12:41:45.763Z,11.82
2023-01-11T12:44:55.817Z,11.97
2023-01-11T12:47:57.967Z,12.09
2023-01-11T12:50:33.710Z,12.38
2023-01-11T12:53:16.103Z,12.13
2023-01-11T12:56:00.748Z,12.15
2023-01-11T12:58:34.740Z,12.41
2023-01-11T13:01:16.680Z,12.56
2023-01-11T13:04:03.861Z,12.77
2023-01-11T13:06:44.998Z,12.57
2023-01-11T13:09:36.748Z,12.21
2023-01-11T13:12:11.322Z,12.03
2023-01-11T13:15:04.897Z,11.76
2023-01-11T13:17:37.233Z,12.22
2023-01-11T13:20:24.784Z,12.18
2023-01-11T13:23:01.878Z,12.03
2023-01-11T13:25:39.373Z,12.04
2023-01-11T13:28:35.959Z,12.14
2023-01-11T13:31:06.054Z,11.72
2023-01-11T13:33:38.921Z,12.05
2023-01-11T13:36:22.580Z,12.07
2023-01-11T13:39:13.958Z,12.02
2023-01-11T13:41:52.865Z,11.76
2023-01-11T13:44:24.894Z,11.87
2023-01-11T13:50:17.750Z,11.88
2023-01-11T13:52:55.842Z,11.96
2023-01-11T13:55:31.286Z,12.08
2023-01-11T13:58:43.082Z,12.50
2023-01-11T14:04:43.908Z,12.12
2023-01-11T14:08:01.112Z,11.87
2023-01-11T14:10:43.774Z,11.87
2023-01-11T14:14:09.867Z,11.68
2023-01-11T14:16:45.277Z,11.65
2023-01-11T14:19:20.796Z,11.80
2023-01-11T14:22:04.812Z,11.69
2023-01-11T14:24:38.548Z,11.60
2023-01-11T14:27:33.141Z,11.62
2023-01-11T14:32:54.939Z,11.40
2023-01-11T14:35:43.125Z,11.49
2023-01-11T14:41:26.929Z,11.36
2023-01-11T14:44:13.829Z,11.40
2023-01-11T14:47:19.770Z,11.14
2023-01-11T14:50:08.567Z,11.11
2023-01-11T14:52:40.696Z,11.07
2023-01-11T14:55:25.808Z,10.99
2023-01-11T14:57:55.140Z,11.08
2023-01-11T15:00:32.576Z,10.70
2023-01-11T15:03:01.316Z,10.87
2023-01-11T15:05:38.950Z,10.78
2023-01-11T15:08:13.559Z,10.80
2023-01-11T15:11:00.994Z,10.52
2023-01-11T15:13:40.820Z,10.39
2023-01-11T15:19:37.091Z,10.35
2023-01-11T15:22:06.944Z,10.35
2023-01-11T15:24:43.492Z,10.25
2023-01-11T15:27:24.236Z,10.08
2023-01-11T15:32:40.078Z,10.08
2023-01-11T15:35:37.230Z,9.98
2023-01-11T15:38:23.915Z,9.66
2023-01-11T15:41:18.475Z,9.61
2023-01-11T15:44:36.391Z,9.44
2023-01-11T15:47:19.956Z,9.67
2023-01-11T15:50:18.049Z,9.55
2023-01-11T15:53:10.098Z,9.46
2023-01-11T15:56:15.282Z,9.50
2023-01-11T15:58:50.930Z,9.33
2023-01-11T16:01:28.957Z,9.41
2023-01-11T16:04:14.981Z,9.31
2023-01-11T16:06:53.119Z,9.35
2023-01-11T16:09:46.536Z,9.37
2023-01-11T16:12:33.751Z,9.25
2023-01-11T16:15:18.784Z,9.13
2023-01-11T16:17:51.343Z,9.08
2023-01-11T16:20:25.381Z,9.06
2023-01-11T16:23:03.833Z,8.63
2023-01-11T16:25:42.265Z,8.51
2023-01-11T16:28:30.012Z,8.47
2023-01-11T16:31:05.017Z,8.40
2023-01-11T16:33:35.102Z,8.45
2023-01-11T16:36:24.040Z,8.49
2023-01-11T16:38:58.966Z,8.48
2023-01-11T16:42:00.937Z,8.35
2023-01-11T16:44:42.934Z,8.38
2023-01-11T16:47:23.495Z,8.28
2023-01-11T16:50:25.272Z,8.22
2023-01-11T16:53:06.953Z,8.10
2023-01-11T16:58:29.824Z,8.01
2023-01-11T17:01:02.204Z,8.01
2023-01-11T17:03:44.113Z,7.95
2023-01-11T17:06:28.853Z,8.00
2023-01-11T17:09:13.375Z,7.69
2023-01-11T17:11:50.847Z,7.75
2023-01-11T17:14:32.782Z,7.80
2023-01-11T17:17:08.222Z,7.67
2023-01-11T17:19:38.959Z,7.64
2023-01-11T17:22:16.421Z,7.60
2023-01-11T17:24:55.087Z,7.63
2023-01-11T17:27:40.829Z,7.55
2023-01-11T17:30:16.867Z,7.49
2023-01-11T17:32:52.096Z,7.51
2023-01-11T17:35:29.816Z,7.50
2023-01-11T17:38:13.983Z,7.46
2023-01-11T17:40:48.686Z,7.31
2023-01-11T17:46:27.618Z,7.34
2023-01-11T17:49:09.140Z,7.07
2023-01-11T17:51:43.846Z,6.95
2023-01-11T17:57:01.718Z,7.12
2023-01-11T17:59:34.821Z,6.91
2023-01-11T18:02:05.763Z,6.88
2023-01-11T18:04:47.003Z,6.96
2023-01-11T18:07:28.715Z,6.95
2023-01-11T18:10:04.176Z,6.89
2023-01-11T18:12:45.732Z,6.91
2023-01-11T18:15:26.746Z,6.81
2023-01-11T18:20:48.734Z,6.80
2023-01-11T18:23:23.226Z,6.68
2023-01-11T18:28:57.776Z,6.51
2023-01-11T18:31:26.874Z,6.23
2023-01-11T18:33:57.952Z,6.18
2023-01-11T18:39:15.772Z,6.24
2023-01-11T18:42:05.899Z,6.24
2023-01-11T18:44:39.529Z,6.19
2023-01-11T18:47:25.949Z,6.09
2023-01-11T18:49:56.764Z,6.25
2023-01-11T18:52:34.805Z,6.15
2023-01-11T18:55:11.060Z,6.23
2023-01-11T18:57:48.733Z,5.99
2023-01-11T19:00:18.876Z,6.11
2023-01-11T19:02:47.110Z,6.21
2023-01-11T19:05:23.900Z,5.89
2023-01-11T19:07:55.834Z,6.02
2023-01-11T19:10:24.602Z,5.92
2023-01-11T19:13:00.806Z,5.96
2023-01-11T19:15:39.230Z,5.96
2023-01-11T19:18:17.828Z,5.86
2023-01-11T19:20:48.099Z,5.80
2023-01-11T19:23:17.891Z,5.69
2023-01-11T19:25:58.939Z,5.72
2023-01-11T19:31:11.801Z,5.68
2023-01-11T19:33:41.892Z,5.77
2023-01-11T19:36:10.790Z,5.69
2023-01-11T19:38:40.772Z,5.56
2023-01-11T19:41:16.800Z,5.58
2023-01-11T19:43:47.241Z,5.63
2023-01-11T19:48:55.334Z,5.49
2023-01-11T19:51:30.758Z,5.49
2023-01-11T19:54:04.937Z,5.31
2023-01-11T19:56:41.914Z,5.18
2023-01-11T19:59:16.262Z,5.27
2023-01-11T20:01:46.845Z,5.29
2023-01-11T20:06:58.864Z,5.31
2023-01-11T20:09:36.707Z,5.13
2023-01-11T20:12:11.787Z,5.19
2023-01-11T20:14:45.737Z,5.24
2023-01-11T20:17:15.828Z,5.21
2023-01-11T20:19:58.716Z,5.19
2023-01-11T20:22:33.774Z,5.06
2023-01-11T20:25:02.124Z,5.04
2023-01-11T20:27:32.003Z,5.11
2023-01-11T20:29:59.730Z,5.15
2023-01-11T20:32:41.748Z,4.99
2023-01-11T20:35:18.856Z,5.09
2023-01-11T20:37:49.129Z,5.05
2023-01-11T20:40:23.697Z,4.95
2023-01-11T20:42:53.133Z,4.95
2023-01-11T20:47:56.749Z,4.99
2023-01-11T20:50:25.147Z,4.71
2023-01-11T20:52:53.335Z,4.72
2023-01-11T20:55:26.944Z,4.90
2023-01-11T20:57:55.930Z,4.82
2023-01-11T21:00:28.890Z,4.59
2023-01-11T21:02:58.790Z,4.74
2023-01-11T21:05:27.739Z,4.62
2023-01-11T21:07:57.707Z,4.63
2023-01-11T21:10:28.192Z,4.83
2023-01-11T21:15:27.653Z,4.78
2023-01-11T21:18:00.323Z,4.75
2023-01-11T21:20:32.126Z,4.71
2023-01-11T21:23:02.080Z,4.52
2023-01-11T21:25:38.098Z,4.53
2023-01-11T21:28:08.221Z,4.62
2023-01-11T21:30:39.937Z,4.72
2023-01-11T21:33:15.900Z,4.65
2023-01-11T21:35:44.621Z,4.63
2023-01-11T21:38:13.181Z,4.55
2023-01-11T21:40:42.942Z,4.58
2023-01-11T21:43:14.874Z,4.50
2023-01-11T21:45:54.172Z,4.57
2023-01-11T21:48:23.015Z,4.36
2023-01-11T21:50:52.379Z,4.28
2023-01-11T21:53:20.734Z,4.14
2023-01-11T21:55:49.897Z,4.31
2023-01-11T21:58:22.161Z,4.19
2023-01-11T22:00:51.071Z,4.43
2023-01-11T22:03:19.162Z,4.49
2023-01-11T22:05:50.970Z,4.46
2023-01-11T22:08:20.788Z,4.32
2023-01-11T22:11:02.331Z,4.28
2023-01-11T22:13:36.972Z,4.31
2023-01-11T22:16:11.643Z,4.40
2023-01-11T22:18:43.300Z,4.30
2023-01-11T22:21:18.139Z,4.22
2023-01-11T22:23:47.885Z,4.28
2023-01-11T22:26:18.892Z,4.15
2023-01-11T22:29:08.892Z,4.28
2023-01-11T22:31:36.825Z,4.29
2023-01-11T22:34:07.043Z,4.44
2023-01-11T22:36:38.863Z,4.28
2023-01-11T22:39:07.886Z,4.14
2023-01-11T22:41:41.889Z,3.99
2023-01-11T22:44:10.603Z,4.02
2023-01-11T22:46:39.689Z,3.91
2023-01-11T22:49:08.167Z,3.98
2023-01-11T22:51:36.591Z,3.94
2023-01-11T22:54:05.130Z,4.07
2023-01-11T22:56:34.348Z,4.07
2023-01-11T22:59:02.880Z,4.17
2023-01-11T23:01:33.905Z,4.01
2023-01-11T23:04:03.645Z,3.84
2023-01-11T23:06:39.752Z,3.99
2023-01-11T23:09:15.997Z,4.10
2023-01-11T23:12:04.221Z,4.50
2023-01-11T23:14:34.954Z,4.25
2023-01-11T23:17:08.276Z,4.11
2023-01-11T23:19:40.817Z,4.19
2023-01-11T23:22:09.889Z,4.11
2023-01-11T23:24:39.073Z,4.12
2023-01-11T23:27:09.076Z,4.18
2023-01-11T23:29:37.594Z,4.33
2023-01-11T23:32:05.682Z,4.35
2023-01-11T23:34:33.685Z,4.34
2023-01-11T23:37:01.238Z,4.39
2023-01-11T23:39:32.966Z,4.44
2023-01-11T23:42:19.431Z,4.47
2023-01-11T23:44:47.552Z,4.46
2023-01-11T23:47:21.163Z,4.33
2023-01-11T23:50:01.158Z,4.46
2023-01-11T23:52:31.364Z,4.48
2023-01-11T23:55:00.795Z,4.45
2023-01-11T23:57:28.579Z,4.43
2023-01-11T23:59:56.996Z,4.34
